Time;durP1;ratioP1;P1;durP2;ratioP2;P2;SDS_P1;SDS_P2;PMS_P1;PMS_P2;Temp;Humidity;BMP_temperature;BMP_pressure;BME280_temperature;BME280_humidity;BME280_pressure;Samples;Min_cycle;Max_cycle;Signal;HPM_P1;HPM_P2
2021/09/18 00:01:46;;;;;;;3.50;2.05;;;8.00;99.90;;;;;;5029366;28;20392;-69
2021/09/18 00:04:12;;;;;;;4.07;2.58;;;8.00;99.90;;;;;;5029327;28;20541;-68
2021/09/18 00:06:38;;;;;;;3.25;2.22;;;7.90;99.90;;;;;;5029009;28;20083;-68
2021/09/18 00:09:04;;;;;;;3.47;2.15;;;7.90;99.90;;;;;;5029034;28;20496;-68
2021/09/18 00:11:30;;;;;;;2.75;2.30;;;7.90;99.90;;;;;;5028950;28;20064;-68
2021/09/18 00:13:56;;;;;;;3.85;2.10;;;7.80;99.90;;;;;;5028891;28;20025;-68
2021/09/18 00:16:22;;;;;;;3.25;2.05;;;7.80;99.90;;;;;;5028858;28;20381;-68
2021/09/18 00:18:48;;;;;;;2.15;1.90;;;7.90;99.90;;;;;;5029073;28;20112;-67
2021/09/18 00:21:14;;;;;;;2.63;2.10;;;7.80;99.90;;;;;;5028914;28;20033;-67
2021/09/18 00:23:39;;;;;;;3.80;1.80;;;7.90;99.90;;;;;;5028507;28;20026;-67
2021/09/18 00:26:05;;;;;;;3.60;2.00;;;7.80;99.90;;;;;;5028776;28;20036;-68
2021/09/18 00:28:31;;;;;;;3.03;2.10;;;7.90;99.90;;;;;;5029771;28;20022;-68
2021/09/18 00:30:57;;;;;;;7.07;2.67;;;7.90;99.90;;;;;;5032172;28;20037;-67
2021/09/18 00:33:22;;;;;;;2.88;2.10;;;7.90;99.90;;;;;;5032100;28;20021;-68
2021/09/18 00:35:48;;;;;;;2.90;2.10;;;7.90;99.90;;;;;;5032235;28;20429;-68
2021/09/18 00:38:14;;;;;;;2.83;2.28;;;7.90;99.90;;;;;;5032164;28;20350;-67
2021/09/18 00:40:41;;;;;;;4.97;2.38;;;7.80;99.90;;;;;;5032231;28;20038;-67
2021/09/18 00:43:07;;;;;;;3.40;2.40;;;7.80;99.90;;;;;;5031918;28;20022;-67
2021/09/18 00:45:33;;;;;;;2.75;2.35;;;7.80;99.90;;;;;;5031993;28;20032;-68
2021/09/18 00:47:58;;;;;;;2.45;2.00;;;7.80;99.90;;;;;;5032004;28;20032;-67
2021/09/18 00:50:24;;;;;;;3.20;2.22;;;7.90;99.90;;;;;;5032088;28;20109;-67
2021/09/18 00:52:50;;;;;;;2.78;2.35;;;7.90;99.90;;;;;;5032009;28;20033;-68
2021/09/18 00:55:16;;;;;;;4.50;2.38;;;7.90;99.90;;;;;;5031764;28;20041;-68
2021/09/18 00:57:42;;;;;;;3.22;2.38;;;7.90;99.90;;;;;;5031662;28;20109;-67
2021/09/18 01:00:09;;;;;;;3.28;2.55;;;7.90;99.90;;;;;;5031972;28;20037;-68
2021/09/18 01:02:36;;;;;;;3.58;2.28;;;7.90;99.90;;;;;;5031529;28;20018;-68
2021/09/18 01:05:04;;;;;;;6.15;2.30;;;7.80;99.90;;;;;;5031771;28;20057;-68
2021/09/18 01:07:30;;;;;;;2.33;2.13;;;7.80;99.90;;;;;;5031282;28;20370;-68
2021/09/18 01:09:57;;;;;;;4.50;2.35;;;7.80;99.90;;;;;;5031632;28;20029;-68
2021/09/18 01:12:22;;;;;;;5.00;2.35;;;7.90;99.90;;;;;;5032012;28;20032;-68
2021/09/18 01:14:48;;;;;;;6.85;2.17;;;7.80;99.90;;;;;;5031655;28;20030;-68
2021/09/18 01:17:16;;;;;;;2.53;2.00;;;7.70;99.90;;;;;;5031929;28;20457;-68
2021/09/18 01:19:42;;;;;;;2.88;2.33;;;7.60;99.90;;;;;;5031550;28;20053;-68
2021/09/18 01:22:09;;;;;;;2.35;2.15;;;7.60;99.90;;;;;;5031514;28;20094;-68
2021/09/18 01:24:36;;;;;;;2.75;2.30;;;7.60;99.90;;;;;;5031320;28;20406;-67
2021/09/18 01:27:02;;;;;;;3.13;2.30;;;7.60;99.90;;;;;;5031648;28;20040;-68
2021/09/18 01:29:28;;;;;;;8.75;2.83;;;7.60;99.90;;;;;;5031241;28;20025;-70
2021/09/18 01:31:53;;;;;;;5.95;2.55;;;7.70;99.90;;;;;;5031242;28;20025;-70
2021/09/18 01:34:21;;;;;;;4.55;2.28;;;7.70;99.90;;;;;;5031184;28;20536;-70
2021/09/18 01:36:48;;;;;;;2.95;2.33;;;7.70;99.90;;;;;;5031170;28;20049;-70
2021/09/18 01:39:15;;;;;;;4.88;3.15;;;7.70;99.90;;;;;;5031016;28;20026;-70
2021/09/18 01:41:42;;;;;;;5.55;2.97;;;7.70;99.90;;;;;;5030322;28;20033;-70
2021/09/18 01:44:07;;;;;;;4.65;3.10;;;7.70;99.90;;;;;;5031344;28;20025;-70
2021/09/18 01:46:33;;;;;;;5.15;3.25;;;7.70;99.90;;;;;;5031043;28;20030;-70
2021/09/18 01:48:59;;;;;;;3.97;2.95;;;7.60;99.90;;;;;;5031282;28;20105;-70
2021/09/18 01:51:28;;;;;;;5.85;3.42;;;7.60;99.90;;;;;;5031162;28;20037;-70
2021/09/18 01:53:53;;;;;;;4.82;2.80;;;7.60;99.90;;;;;;5030741;28;20046;-70
2021/09/18 01:56:19;;;;;;;4.60;3.40;;;7.70;99.90;;;;;;5031024;28;20033;-70
2021/09/18 01:58:45;;;;;;;5.60;3.17;;;7.70;99.90;;;;;;5031021;28;20423;-69
2021/09/18 02:01:10;;;;;;;5.13;2.97;;;7.70;99.90;;;;;;5030711;28;20038;-70
2021/09/18 02:03:36;;;;;;;4.75;3.28;;;7.70;99.90;;;;;;5030837;28;20061;-70
2021/09/18 02:06:02;;;;;;;5.00;3.20;;;7.70;99.90;;;;;;5030805;28;20032;-70
2021/09/18 02:08:28;;;;;;;3.55;2.75;;;7.70;99.90;;;;;;5030558;28;20029;-71
2021/09/18 02:10:56;;;;;;;8.15;3.50;;;7.60;99.90;;;;;;5030748;28;20565;-70
2021/09/18 02:13:22;;;;;;;4.57;3.13;;;7.60;99.90;;;;;;5030681;28;20029;-70
2021/09/18 02:15:49;;;;;;;5.00;3.08;;;7.60;99.90;;;;;;5030611;28;20079;-70
2021/09/18 02:18:14;;;;;;;5.57;2.90;;;7.60;99.90;;;;;;5030601;28;20381;-70
2021/09/18 02:20:41;;;;;;;5.22;2.90;;;7.60;99.90;;;;;;5030341;28;20046;-71
2021/09/18 02:23:09;;;;;;;12.18;3.40;;;7.60;99.90;;;;;;5030446;28;20508;-71
2021/09/18 02:54:39;;;;;;;7.15;2.53;;;7.50;99.90;;;;;;5024027;28;20053;-69
2021/09/18 02:57:05;;;;;;;3.13;2.55;;;7.40;99.90;;;;;;5029996;28;20034;-69
2021/09/18 02:59:31;;;;;;;3.97;2.45;;;7.40;99.90;;;;;;5028694;28;20030;-69
2021/09/18 03:01:57;;;;;;;5.45;2.20;;;7.40;99.90;;;;;;5029736;28;20025;-69
2021/09/18 03:04:23;;;;;;;2.92;2.22;;;7.40;99.90;;;;;;5029821;28;20108;-69
2021/09/18 03:06:49;;;;;;;4.10;2.13;;;7.40;99.90;;;;;;5029743;28;20511;-69
2021/09/18 03:09:15;;;;;;;3.83;2.60;;;7.40;99.90;;;;;;5029837;28;20025;-69
2021/09/18 03:11:41;;;;;;;5.90;2.60;;;7.40;99.90;;;;;;5029653;28;20605;-69
2021/09/18 03:14:07;;;;;;;5.32;2.60;;;7.40;99.90;;;;;;5029670;28;20029;-69
2021/09/18 03:16:32;;;;;;;3.17;2.53;;;7.40;99.90;;;;;;5029827;28;20031;-69
2021/09/18 03:18:58;;;;;;;3.22;2.90;;;7.40;99.90;;;;;;5029572;28;20029;-69
2021/09/18 03:21:24;;;;;;;7.50;2.90;;;7.40;99.90;;;;;;5029894;28;20034;-69
2021/09/18 03:23:50;;;;;;;3.97;2.55;;;7.40;99.90;;;;;;5029397;28;20381;-69
2021/09/18 03:26:15;;;;;;;3.20;2.28;;;7.40;99.90;;;;;;5029547;28;20477;-69
2021/09/18 03:28:41;;;;;;;2.83;2.33;;;7.30;99.90;;;;;;5029497;28;20029;-69
2021/09/18 03:31:07;;;;;;;2.78;2.42;;;7.40;99.90;;;;;;5029417;28;20032;-69
2021/09/18 03:33:33;;;;;;;3.40;2.25;;;7.40;99.90;;;;;;5029676;28;20069;-69
2021/09/18 03:35:58;;;;;;;3.20;2.90;;;7.40;99.90;;;;;;5029310;28;20053;-69
2021/09/18 03:38:24;;;;;;;3.08;2.50;;;7.40;99.90;;;;;;5029759;28;20069;-70
2021/09/18 03:40:50;;;;;;;5.05;2.60;;;7.40;99.90;;;;;;5029612;28;20392;-71
2021/09/18 03:43:16;;;;;;;3.80;2.70;;;7.40;99.90;;;;;;5029267;28;20469;-70
2021/09/18 03:45:41;;;;;;;2.50;2.30;;;7.40;99.90;;;;;;5029431;28;20032;-70
2021/09/18 03:48:07;;;;;;;2.67;2.15;;;7.40;99.90;;;;;;5029285;28;20477;-69
2021/09/18 03:50:33;;;;;;;2.60;2.33;;;7.40;99.90;;;;;;5029404;28;20025;-70
2021/09/18 03:52:59;;;;;;;6.65;2.70;;;7.40;99.90;;;;;;5029099;28;20049;-70
2021/09/18 03:55:25;;;;;;;6.32;2.70;;;7.40;99.90;;;;;;5029120;28;20077;-70
2021/09/18 03:57:50;;;;;;;2.80;2.17;;;7.40;99.90;;;;;;5029010;28;20509;-70
2021/09/18 04:00:16;;;;;;;3.22;2.60;;;7.40;99.90;;;;;;5029051;28;20065;-70
2021/09/18 04:02:42;;;;;;;3.72;2.15;;;7.40;99.90;;;;;;5028694;28;20030;-70
2021/09/18 04:05:08;;;;;;;5.32;2.58;;;7.40;99.90;;;;;;5029289;28;20022;-70
2021/09/18 04:07:34;;;;;;;2.65;2.40;;;7.40;99.90;;;;;;5028962;28;20029;-70
2021/09/18 04:10:00;;;;;;;4.10;2.50;;;7.40;99.90;;;;;;5029188;28;20029;-69
2021/09/18 04:12:25;;;;;;;5.97;2.55;;;7.40;99.90;;;;;;5029150;28;20224;-69
2021/09/18 04:14:51;;;;;;;3.63;2.30;;;7.30;99.90;;;;;;5029011;28;20058;-69
2021/09/18 04:17:17;;;;;;;2.90;2.40;;;7.30;99.90;;;;;;5028849;28;20530;-69
2021/09/18 04:19:43;;;;;;;3.28;2.45;;;7.30;99.90;;;;;;5028820;28;20025;-68
2021/09/18 04:22:08;;;;;;;2.50;2.20;;;7.30;99.90;;;;;;5028798;28;20042;-69
2021/09/18 04:24:36;;;;;;;3.47;2.65;;;7.30;99.90;;;;;;5028642;28;20066;-69
2021/09/18 04:27:02;;;;;;;3.00;2.20;;;7.30;99.90;;;;;;5028998;28;20053;-70
2021/09/18 04:29:27;;;;;;;2.55;2.08;;;7.40;99.90;;;;;;5028671;28;20033;-70
2021/09/18 04:31:53;;;;;;;4.30;2.30;;;7.40;99.90;;;;;;5028529;28;20030;-68
2021/09/18 04:34:19;;;;;;;3.42;2.30;;;7.40;99.90;;;;;;5028593;28;20052;-67
2021/09/18 04:36:45;;;;;;;3.30;2.17;;;7.30;99.90;;;;;;5028858;28;20025;-67
2021/09/18 04:39:13;;;;;;;2.78;2.40;;;7.30;99.90;;;;;;5028593;28;20022;-69
2021/09/18 04:41:39;;;;;;;3.72;2.40;;;7.50;99.90;;;;;;5028579;28;20389;-68
2021/09/18 04:44:04;;;;;;;2.50;2.30;;;7.90;99.90;;;;;;5028417;28;20021;-68
2021/09/18 04:46:30;;;;;;;3.55;2.45;;;7.90;99.90;;;;;;5028592;28;20052;-67
2021/09/18 04:48:56;;;;;;;2.38;2.03;;;7.80;99.90;;;;;;5028650;28;20065;-68
2021/09/18 04:51:21;;;;;;;2.60;2.22;;;7.70;99.90;;;;;;5027316;28;20022;-68
2021/09/18 04:53:47;;;;;;;4.60;2.70;;;7.70;99.90;;;;;;5028367;28;20017;-68
2021/09/18 04:56:13;;;;;;;4.03;2.30;;;7.60;99.90;;;;;;5028443;28;20054;-67
2021/09/18 04:58:39;;;;;;;3.85;2.30;;;7.50;99.90;;;;;;5028438;28;20093;-67
2021/09/18 05:01:04;;;;;;;6.55;2.38;;;7.50;99.90;;;;;;5028298;28;20509;-68
2021/09/18 05:03:30;;;;;;;4.18;2.70;;;7.50;99.90;;;;;;5028297;28;20029;-66
2021/09/18 05:05:56;;;;;;;3.47;2.58;;;7.50;99.90;;;;;;5028127;28;20034;-66
2021/09/18 05:08:21;;;;;;;2.83;2.15;;;7.50;99.90;;;;;;5028028;28;20064;-66
2021/09/18 05:10:47;;;;;;;3.40;2.40;;;7.50;99.90;;;;;;5027966;28;20021;-68
2021/09/18 05:13:13;;;;;;;2.63;2.42;;;7.50;99.90;;;;;;5028102;28;20524;-68
2021/09/18 05:15:39;;;;;;;2.90;2.60;;;7.40;99.90;;;;;;5029466;28;20025;-66
2021/09/18 05:18:04;;;;;;;2.58;2.15;;;7.40;99.90;;;;;;5031391;28;20026;-66
2021/09/18 05:20:30;;;;;;;3.42;2.40;;;7.40;99.90;;;;;;5031298;28;20041;-66
2021/09/18 05:22:56;;;;;;;5.35;2.80;;;7.40;99.90;;;;;;5031132;28;20029;-66
2021/09/18 05:25:21;;;;;;;3.13;2.38;;;7.40;99.90;;;;;;5031144;28;20033;-66
2021/09/18 05:27:47;;;;;;;22.67;4.03;;;7.40;99.90;;;;;;5029471;28;20053;-66
2021/09/18 05:30:13;;;;;;;4.95;2.40;;;7.40;99.90;;;;;;5031072;28;20068;-67
2021/09/18 05:32:39;;;;;;;3.75;2.35;;;7.50;99.90;;;;;;5031224;28;20482;-67
2021/09/18 05:35:06;;;;;;;4.63;2.50;;;7.50;99.90;;;;;;5031183;28;20033;-66
2021/09/18 05:37:32;;;;;;;3.10;2.42;;;7.50;99.90;;;;;;5031027;28;20060;-66
2021/09/18 05:39:57;;;;;;;3.75;2.47;;;7.40;99.90;;;;;;5030877;28;20061;-67
2021/09/18 05:42:23;;;;;;;8.18;2.38;;;7.40;99.90;;;;;;5031129;28;20442;-66
2021/09/18 05:44:49;;;;;;;2.92;2.47;;;7.40;99.90;;;;;;5030726;28;20025;-66
2021/09/18 05:47:15;;;;;;;4.00;2.60;;;7.40;99.90;;;;;;5031062;28;20029;-66
2021/09/18 05:49:40;;;;;;;3.58;2.80;;;7.40;99.90;;;;;;5030910;28;20025;-66
2021/09/18 05:52:06;;;;;;;6.53;2.90;;;7.50;99.90;;;;;;5030939;28;20026;-66
2021/09/18 05:54:32;;;;;;;3.17;2.80;;;7.50;99.90;;;;;;5030683;28;20034;-66
2021/09/18 05:56:58;;;;;;;4.20;2.78;;;7.50;99.90;;;;;;5029822;28;20025;-66
2021/09/18 05:59:24;;;;;;;3.75;2.88;;;7.50;99.90;;;;;;5030473;28;20442;-66
2021/09/18 06:01:50;;;;;;;4.90;2.95;;;7.50;99.90;;;;;;5030871;28;20108;-68
2021/09/18 06:04:15;;;;;;;2.50;2.30;;;7.50;99.90;;;;;;5031210;28;20049;-67
2021/09/18 06:06:41;;;;;;;3.05;2.45;;;7.50;99.90;;;;;;5031211;28;20057;-67
2021/09/18 06:09:08;;;;;;;3.63;2.53;;;7.50;99.90;;;;;;5030651;28;20528;-67
2021/09/18 06:11:34;;;;;;;3.35;2.78;;;7.60;99.90;;;;;;5030659;28;20022;-67
2021/09/18 06:13:59;;;;;;;5.35;2.72;;;7.60;99.90;;;;;;5030330;28;20469;-67
2021/09/18 06:16:25;;;;;;;3.10;2.33;;;7.60;99.90;;;;;;5030795;28;20044;-66
2021/09/18 06:18:52;;;;;;;5.45;3.10;;;7.60;99.90;;;;;;5030682;28;20025;-67
2021/09/18 06:21:18;;;;;;;7.53;2.90;;;7.60;99.90;;;;;;5030307;28;20116;-66
2021/09/18 06:23:45;;;;;;;4.55;2.63;;;7.60;99.90;;;;;;5030543;28;20021;-66
2021/09/18 06:26:10;;;;;;;6.95;2.75;;;7.60;99.90;;;;;;5029792;28;20033;-66
2021/09/18 06:28:36;;;;;;;3.72;2.83;;;7.70;99.90;;;;;;5030263;28;20029;-65
2021/09/18 06:31:02;;;;;;;4.10;2.42;;;7.70;99.90;;;;;;5030526;28;20098;-70
2021/09/18 06:33:28;;;;;;;4.60;2.38;;;8.70;99.90;;;;;;5030606;28;20464;-66
2021/09/18 06:35:55;;;;;;;3.88;2.50;;;9.90;99.90;;;;;;5030441;28;20384;-66
2021/09/18 06:38:22;;;;;;;3.30;2.35;;;9.70;99.90;;;;;;5030141;28;20025;-65
2021/09/18 06:40:49;;;;;;;3.33;2.40;;;9.30;99.90;;;;;;5030079;28;20083;-66
2021/09/18 06:43:15;;;;;;;9.15;2.55;;;9.00;99.90;;;;;;5029805;28;20134;-66
2021/09/18 06:45:41;;;;;;;9.52;2.78;;;8.90;99.90;;;;;;5030165;28;20490;-66
2021/09/18 06:48:06;;;;;;;3.22;2.13;;;8.70;99.90;;;;;;5030037;28;20029;-66
2021/09/18 06:50:32;;;;;;;6.97;3.83;;;8.70;99.90;;;;;;5030131;28;20086;-66
2021/09/18 06:52:58;;;;;;;8.25;2.40;;;8.60;99.90;;;;;;5030174;28;20017;-66
2021/09/18 06:55:24;;;;;;;7.95;2.70;;;8.60;99.90;;;;;;5029875;28;20129;-66
2021/09/18 06:57:50;;;;;;;5.40;2.90;;;8.60;99.90;;;;;;5030072;28;20480;-66
2021/09/18 07:00:16;;;;;;;10.02;3.00;;;8.60;99.90;;;;;;5029664;28;20396;-66
2021/09/18 07:02:42;;;;;;;11.38;2.88;;;8.60;99.90;;;;;;5029942;28;20105;-66
2021/09/18 07:05:09;;;;;;;4.97;2.67;;;8.70;99.90;;;;;;5030050;28;20105;-66
2021/09/18 07:07:36;;;;;;;3.85;2.97;;;8.80;99.90;;;;;;5029933;28;20034;-66
2021/09/18 07:10:02;;;;;;;4.28;2.70;;;8.80;99.90;;;;;;5028824;28;20075;-66
2021/09/18 07:12:28;;;;;;;3.42;2.85;;;8.80;99.90;;;;;;5029564;28;20469;-66
2021/09/18 07:14:54;;;;;;;5.18;2.88;;;8.80;99.90;;;;;;5029521;28;20112;-66
2021/09/18 07:17:20;;;;;;;3.65;3.08;;;8.80;99.90;;;;;;5029845;28;20032;-66
2021/09/18 07:19:45;;;;;;;4.45;3.20;;;8.70;99.90;;;;;;5030014;28;20033;-66
2021/09/18 07:22:11;;;;;;;4.55;2.85;;;8.80;99.90;;;;;;5029583;28;20168;-67
2021/09/18 07:24:38;;;;;;;4.00;3.17;;;8.80;99.90;;;;;;5029599;28;20026;-68
2021/09/18 07:27:04;;;;;;;3.70;3.03;;;8.80;99.90;;;;;;5029500;28;20116;-70
2021/09/18 07:29:29;;;;;;;5.18;3.33;;;8.80;99.90;;;;;;5029468;28;20175;-70
2021/09/18 07:31:55;;;;;;;9.70;3.95;;;8.80;99.90;;;;;;5029427;28;20028;-69
2021/09/18 07:34:21;;;;;;;10.60;3.65;;;8.80;99.90;;;;;;5029418;28;20029;-66
2021/09/18 07:36:47;;;;;;;3.83;2.90;;;8.80;99.90;;;;;;5029597;28;20109;-67
2021/09/18 07:39:13;;;;;;;3.85;2.67;;;8.90;99.90;;;;;;5028262;28;20444;-67
2021/09/18 07:41:40;;;;;;;3.17;2.88;;;8.90;99.90;;;;;;5029517;28;20125;-66
2021/09/18 07:44:07;;;;;;;6.50;3.10;;;9.00;99.90;;;;;;5029043;28;20082;-67
2021/09/18 07:46:33;;;;;;;3.75;2.80;;;9.00;99.90;;;;;;5029266;28;20400;-66
2021/09/18 07:49:00;;;;;;;3.47;3.00;;;9.00;99.90;;;;;;5028877;28;20033;-66
2021/09/18 07:51:27;;;;;;;3.72;2.88;;;9.00;99.90;;;;;;5029054;28;20081;-66
2021/09/18 07:53:53;;;;;;;3.53;3.22;;;9.10;99.90;;;;;;5029136;28;20017;-66
2021/09/18 07:56:19;;;;;;;6.18;3.13;;;9.10;99.90;;;;;;5028676;28;20053;-66
2021/09/18 07:58:45;;;;;;;5.25;3.38;;;9.10;99.90;;;;;;5028921;28;20026;-66
2021/09/18 08:01:11;;;;;;;5.55;3.17;;;9.10;99.90;;;;;;5028415;28;20037;-66
2021/09/18 08:03:36;;;;;;;4.38;3.60;;;9.10;99.90;;;;;;5028387;28;20147;-66
2021/09/18 08:06:03;;;;;;;5.82;3.45;;;9.10;99.90;;;;;;5028410;28;20477;-66
2021/09/18 08:08:29;;;;;;;7.07;3.20;;;9.10;99.90;;;;;;5027162;28;20041;-66
2021/09/18 08:10:55;;;;;;;3.85;3.22;;;9.10;99.90;;;;;;5028386;28;20026;-66
2021/09/18 08:13:20;;;;;;;3.40;2.95;;;9.10;99.90;;;;;;5028395;28;20029;-67
2021/09/18 08:15:46;;;;;;;3.67;3.00;;;9.10;99.90;;;;;;5028488;28;20051;-67
2021/09/18 08:18:12;;;;;;;4.07;3.00;;;9.10;99.90;;;;;;5028233;28;20017;-67
2021/09/18 08:20:38;;;;;;;3.85;2.75;;;9.10;99.90;;;;;;5028623;28;20029;-67
2021/09/18 08:23:03;;;;;;;10.00;3.35;;;9.10;99.90;;;;;;5028388;28;20028;-67
2021/09/18 08:25:29;;;;;;;4.40;3.15;;;9.10;99.90;;;;;;5028994;28;20461;-66
2021/09/18 08:27:56;;;;;;;2.92;2.58;;;9.10;99.90;;;;;;5028660;28;20101;-67
2021/09/18 08:30:23;;;;;;;3.42;3.13;;;9.10;99.90;;;;;;5028755;28;20030;-67
2021/09/18 08:32:49;;;;;;;3.35;3.00;;;9.10;99.90;;;;;;5028843;28;20023;-67
2021/09/18 08:35:15;;;;;;;3.35;3.05;;;9.20;99.90;;;;;;5028461;28;20381;-67
2021/09/18 08:37:41;;;;;;;4.97;3.10;;;9.20;99.90;;;;;;5028889;28;20029;-67
2021/09/18 08:40:07;;;;;;;4.03;3.03;;;9.20;99.90;;;;;;5028215;28;20173;-72
2021/09/18 08:42:34;;;;;;;3.10;2.80;;;9.30;99.90;;;;;;5028568;28;20037;-66
2021/09/18 08:45:01;;;;;;;3.35;2.97;;;10.40;99.90;;;;;;5028602;28;20025;-66
2021/09/18 08:47:30;;;;;;;3.10;2.80;;;10.70;99.90;;;;;;5028850;28;20034;-67
2021/09/18 08:49:56;;;;;;;3.13;2.83;;;10.50;99.90;;;;;;5030267;28;20385;-67
2021/09/18 08:52:21;;;;;;;3.45;3.10;;;10.20;99.90;;;;;;5031702;28;20025;-67
2021/09/18 08:54:47;;;;;;;5.97;3.00;;;10.00;99.90;;;;;;5031780;28;20098;-66
2021/09/18 08:57:13;;;;;;;2.75;2.45;;;10.00;99.90;;;;;;5031747;28;20139;-68
2021/09/18 08:59:39;;;;;;;4.28;2.90;;;10.00;99.90;;;;;;5031522;28;20017;-67
2021/09/18 09:02:15;;;;;;;5.30;3.42;;;10.00;99.90;;;;;;5031633;28;20040;-67
2021/09/18 09:04:42;;;;;;;3.95;3.20;;;9.90;99.90;;;;;;5031672;28;20017;-67
2021/09/18 09:07:10;;;;;;;4.07;3.20;;;9.90;99.90;;;;;;5031507;28;20029;-67
2021/09/18 09:09:55;;;;;;;4.57;3.20;;;9.80;99.90;;;;;;5030632;28;20022;-70
2021/09/18 09:12:27;;;;;;;3.50;3.20;;;9.90;99.90;;;;;;5031359;28;20036;-68
2021/09/18 09:14:53;;;;;;;4.80;3.40;;;9.90;99.90;;;;;;5011601;28;20105;-68
2021/09/18 09:17:30;;;;;;;4.60;3.60;;;10.00;99.90;;;;;;5011661;28;20129;-68
2021/09/18 09:19:58;;;;;;;3.80;3.17;;;10.00;99.90;;;;;;5011532;28;20033;-68
2021/09/18 09:22:38;;;;;;;4.60;3.45;;;9.90;99.90;;;;;;5010316;28;20079;-67
2021/09/18 09:25:05;;;;;;;4.03;3.28;;;9.90;99.90;;;;;;5011508;28;20018;-68
2021/09/18 09:27:31;;;;;;;6.53;3.45;;;9.80;99.90;;;;;;5011734;28;20018;-68
2021/09/18 09:30:00;;;;;;;4.18;3.35;;;9.70;99.90;;;;;;5011307;28;20075;-68
2021/09/18 09:32:38;;;;;;;4.03;3.40;;;9.80;99.90;;;;;;5010437;28;20034;-68
2021/09/18 09:35:07;;;;;;;6.47;4.07;;;9.80;99.90;;;;;;5011754;28;20022;-68
2021/09/18 09:37:33;;;;;;;3.63;3.27;;;9.80;99.90;;;;;;5011405;28;20029;-68
2021/09/18 09:40:02;;;;;;;4.47;3.35;;;9.70;99.90;;;;;;5011601;28;20766;-67
2021/09/18 09:42:31;;;;;;;3.63;3.33;;;9.80;99.90;;;;;;5011460;28;20066;-67
2021/09/18 09:45:20;;;;;;;4.32;3.10;;;9.80;99.90;;;;;;5011257;28;20071;-67
2021/09/18 09:47:59;;;;;;;3.85;3.40;;;9.80;99.90;;;;;;5011430;28;20026;-67
2021/09/18 09:50:25;;;;;;;7.15;3.17;;;9.80;99.90;;;;;;5011226;28;20022;-67
2021/09/18 09:52:52;;;;;;;4.45;3.72;;;9.80;99.90;;;;;;5026797;28;20086;-67
2021/09/18 09:55:19;;;;;;;4.05;3.65;;;9.80;99.90;;;;;;5030542;28;20078;-67
2021/09/18 09:57:55;;;;;;;3.90;3.50;;;9.80;99.90;;;;;;5030869;28;20029;-67
2021/09/18 10:00:20;;;;;;;4.18;3.70;;;9.80;99.90;;;;;;5029529;28;20061;-67
2021/09/18 10:02:46;;;;;;;5.82;3.45;;;9.90;99.90;;;;;;5030190;28;20515;-67
2021/09/18 10:05:14;;;;;;;4.07;3.67;;;9.90;99.90;;;;;;5030846;28;20036;-67
2021/09/18 10:07:41;;;;;;;4.10;3.58;;;9.90;99.90;;;;;;5030723;28;20037;-67
2021/09/18 10:10:10;;;;;;;4.30;3.55;;;9.90;99.90;;;;;;5030536;28;20434;-67
2021/09/18 10:12:37;;;;;;;4.15;3.50;;;9.90;99.90;;;;;;5030583;28;20121;-67
2021/09/18 10:15:06;;;;;;;4.97;3.65;;;9.90;99.90;;;;;;5030402;28;20485;-67
2021/09/18 10:17:35;;;;;;;4.40;3.97;;;9.90;99.90;;;;;;5030512;28;20030;-67
2021/09/18 10:20:04;;;;;;;3.75;3.35;;;9.90;99.90;;;;;;5030390;28;20026;-67
2021/09/18 10:25:27;;;;;;;6.32;3.40;;;9.90;99.90;;;;;;5030503;28;20048;-66
2021/09/18 10:28:00;;;;;;;3.88;3.45;;;10.00;99.90;;;;;;5030595;28;20036;-66
2021/09/18 10:30:33;;;;;;;14.98;4.45;;;9.90;99.90;;;;;;5030094;28;20053;-66
2021/09/18 10:32:59;;;;;;;3.50;3.20;;;9.90;99.90;;;;;;5030400;28;20039;-66
2021/09/18 10:35:25;;;;;;;3.58;3.20;;;10.00;99.90;;;;;;5030395;28;20025;-66
2021/09/18 10:37:51;;;;;;;5.55;3.70;;;10.00;99.90;;;;;;5030362;28;20469;-66
2021/09/18 10:40:18;;;;;;;4.68;3.80;;;10.00;99.90;;;;;;5030188;28;20085;-67
2021/09/18 10:42:47;;;;;;;8.00;4.10;;;10.00;99.90;;;;;;5030092;28;20026;-66
2021/09/18 10:45:15;;;;;;;4.13;3.72;;;10.10;99.90;;;;;;5030052;28;20086;-66
2021/09/18 10:47:52;;;;;;;3.88;3.45;;;10.10;99.90;;;;;;5030146;28;20030;-66
2021/09/18 10:50:24;;;;;;;3.88;3.47;;;10.10;99.90;;;;;;5030283;28;20040;-66
2021/09/18 10:52:59;;;;;;;3.40;3.10;;;10.10;99.90;;;;;;5030198;28;20024;-66
2021/09/18 10:55:25;;;;;;;8.75;3.60;;;10.20;99.90;;;;;;5029784;28;20046;-66
2021/09/18 10:57:53;;;;;;;5.40;3.67;;;10.20;99.90;;;;;;5030045;28;20025;-66
2021/09/18 11:00:19;;;;;;;4.30;3.90;;;10.20;99.90;;;;;;5029662;28;20461;-66
2021/09/18 11:02:46;;;;;;;4.05;3.65;;;10.20;99.90;;;;;;5029909;28;20074;-66
2021/09/18 11:05:20;;;;;;;7.35;3.75;;;10.20;99.90;;;;;;5029661;28;20044;-66
2021/09/18 11:07:49;;;;;;;5.72;4.40;;;10.30;99.90;;;;;;5029817;28;20030;-66
2021/09/18 11:10:35;;;;;;;4.55;3.80;;;10.30;99.90;;;;;;5029640;28;20041;-66
2021/09/18 11:13:10;;;;;;;4.20;3.53;;;10.30;99.90;;;;;;5015858;28;20033;-67
2021/09/18 11:15:39;;;;;;;4.32;3.80;;;10.30;99.90;;;;;;5029605;28;20370;-67
2021/09/18 11:18:08;;;;;;;4.85;3.80;;;10.30;99.90;;;;;;5029868;28;20077;-67
2021/09/18 11:20:35;;;;;;;8.13;3.90;;;10.30;99.90;;;;;;5029789;28;20029;-67
2021/09/18 11:23:02;;;;;;;5.18;4.00;;;10.30;99.90;;;;;;5029286;28;20030;-66
2021/09/18 11:25:31;;;;;;;3.90;3.55;;;10.30;99.90;;;;;;5029522;28;20389;-67
2021/09/18 11:28:03;;;;;;;4.10;3.70;;;10.30;99.90;;;;;;5028218;28;20034;-67
2021/09/18 11:30:53;;;;;;;4.60;3.80;;;10.40;99.90;;;;;;5029344;28;20032;-67
2021/09/18 11:33:22;;;;;;;6.53;4.22;;;10.40;99.90;;;;;;5029179;28;20481;-67
2021/09/18 11:35:59;;;;;;;4.18;3.78;;;10.40;99.90;;;;;;5028128;28;20044;-67
2021/09/18 11:38:29;;;;;;;4.57;3.20;;;10.40;99.90;;;;;;5029664;28;20154;-69
2021/09/18 11:41:06;;;;;;;5.68;3.17;;;10.40;99.90;;;;;;5029601;28;20389;-66
2021/09/18 11:43:32;;;;;;;6.88;3.80;;;11.30;99.90;;;;;;5029608;28;20030;-66
2021/09/18 11:46:00;;;;;;;4.65;4.07;;;11.40;99.90;;;;;;5029105;28;20468;-66
2021/09/18 11:48:28;;;;;;;4.32;3.22;;;11.20;99.90;;;;;;5029173;28;20025;-66
2021/09/18 11:50:55;;;;;;;5.13;3.38;;;11.00;99.90;;;;;;5029105;28;20037;-66
2021/09/18 11:53:22;;;;;;;3.28;2.97;;;10.70;99.90;;;;;;5029283;28;20045;-66
2021/09/18 11:55:49;;;;;;;5.22;3.42;;;10.60;99.90;;;;;;5029008;28;20504;-66
2021/09/18 11:58:31;;;;;;;4.13;3.72;;;10.60;99.90;;;;;;5028950;28;20061;-66
2021/09/18 12:01:03;;;;;;;4.97;3.20;;;10.50;98.70;;;;;;5028956;28;20037;-66
2021/09/18 12:03:39;;;;;;;4.07;3.67;;;10.60;98.80;;;;;;5029069;28;20022;-66
2021/09/18 12:06:12;;;;;;;4.18;3.42;;;10.60;98.50;;;;;;5029421;28;20034;-66
2021/09/18 12:08:40;;;;;;;5.60;3.20;;;10.60;98.00;;;;;;5029036;28;20112;-66
2021/09/18 12:11:09;;;;;;;3.70;3.30;;;10.60;98.40;;;;;;5029300;28;20178;-66
2021/09/18 12:13:42;;;;;;;4.88;3.63;;;10.60;98.00;;;;;;5028891;28;20026;-66
2021/09/18 12:16:09;;;;;;;3.38;2.90;;;10.60;97.60;;;;;;5029143;28;20465;-67
2021/09/18 12:18:37;;;;;;;5.22;3.40;;;11.10;99.90;;;;;;5029000;28;20419;-67
2021/09/18 12:21:15;;;;;;;9.45;3.55;;;11.10;97.40;;;;;;5028507;28;20030;-67
2021/09/18 12:23:59;;;;;;;4.22;3.83;;;11.00;97.20;;;;;;5026800;28;20028;-66
2021/09/18 12:26:28;;;;;;;4.70;3.10;;;10.80;96.90;;;;;;5030666;28;20047;-66
2021/09/18 12:29:08;;;;;;;3.80;3.47;;;10.80;97.20;;;;;;5029208;28;20052;-67
2021/09/18 12:31:34;;;;;;;5.78;3.30;;;10.80;97.00;;;;;;5029550;28;20053;-66
2021/09/18 12:34:08;;;;;;;3.83;3.53;;;10.80;96.70;;;;;;5031811;28;20068;-67
2021/09/18 12:36:34;;;;;;;4.20;3.13;;;10.70;96.30;;;;;;5029348;28;20014;-66
2021/09/18 12:39:00;;;;;;;4.13;3.78;;;10.70;96.20;;;;;;5031753;28;20092;-67
2021/09/18 12:41:30;;;;;;;4.40;3.47;;;10.70;96.20;;;;;;5031475;28;20059;-66
2021/09/18 12:44:00;;;;;;;4.82;3.78;;;10.60;96.00;;;;;;5029603;28;20013;-66
2021/09/18 12:46:28;;;;;;;3.85;3.33;;;10.60;96.00;;;;;;5031464;28;20033;-66
2021/09/18 12:49:02;;;;;;;5.57;3.78;;;10.60;96.30;;;;;;5029110;28;20021;-67
2021/09/18 12:51:30;;;;;;;5.22;3.65;;;10.60;96.50;;;;;;5031448;28;20100;-67
2021/09/18 12:53:57;;;;;;;3.45;3.15;;;10.60;96.70;;;;;;5032026;28;20021;-67
2021/09/18 12:56:33;;;;;;;4.03;3.53;;;10.60;96.70;;;;;;5031507;28;20522;-67
2021/09/18 12:59:05;;;;;;;5.72;3.85;;;10.60;97.30;;;;;;5031982;28;20021;-67
2021/09/18 13:01:47;;;;;;;4.85;3.53;;;10.60;97.00;;;;;;5031342;28;20572;-67
2021/09/18 13:04:16;;;;;;;4.97;3.80;;;10.50;96.70;;;;;;5031556;28;20461;-67
2021/09/18 13:06:59;;;;;;;5.75;3.70;;;10.50;96.70;;;;;;5031585;28;20072;-67
2021/09/18 13:09:30;;;;;;;4.95;3.90;;;10.50;96.70;;;;;;5030275;28;20677;-67
2021/09/18 13:12:00;;;;;;;4.18;3.78;;;10.50;96.70;;;;;;5029301;28;20022;-68
2021/09/18 13:14:32;;;;;;;5.10;3.95;;;10.50;96.80;;;;;;5031660;28;20097;-68
2021/09/18 13:17:27;;;;;;;6.07;4.88;;;10.60;97.00;;;;;;5031825;28;20100;-68
2021/09/18 13:19:58;;;;;;;6.20;4.03;;;10.60;97.70;;;;;;5030224;28;20025;-67
2021/09/18 13:22:27;;;;;;;5.50;4.05;;;10.60;95.10;;;;;;5031413;28;20485;-67
2021/09/18 13:24:55;;;;;;;5.95;3.90;;;10.60;95.50;;;;;;5031644;28;20029;-68
2021/09/18 13:27:21;;;;;;;4.05;3.65;;;10.60;96.40;;;;;;5030777;28;20496;-68
2021/09/18 13:29:49;;;;;;;5.68;4.65;;;10.60;96.50;;;;;;5030556;28;20036;-68